Time;durP1;ratioP1;P1;durP2;ratioP2;P2;SDS_P1;SDS_P2;PMS_P1;PMS_P2;Temp;Humidity;BMP_temperature;BMP_pressure;BME280_temperature;BME280_humidity;BME280_pressure;Samples;Min_cycle;Max_cycle;Signal;HPM_P1;HPM_P2
2023/03/04 00:01:49;;;;;;;;;;;25.90;98.20;;;;;;5031215;28;19909;-66
2023/03/04 00:04:16;;;;;;;;;;;26.10;97.50;;;;;;5031877;28;19932;-68
2023/03/04 00:06:43;;;;;;;;;;;26.20;97.20;;;;;;5042930;28;19916;-68
2023/03/04 00:09:10;;;;;;;;;;;26.20;97.20;;;;;;5024476;28;19980;-71
2023/03/04 00:11:36;;;;;;;;;;;26.30;97.40;;;;;;5032853;28;19913;-65
2023/03/04 00:14:03;;;;;;;;;;;26.20;97.90;;;;;;5062045;28;20007;-69
2023/03/04 00:16:30;;;;;;;;;;;26.30;96.50;;;;;;5044600;28;19913;-67
2023/03/04 00:18:56;;;;;;;;;;;26.30;96.80;;;;;;5024585;28;19909;-67
2023/03/04 00:21:23;;;;;;;;;;;26.50;96.30;;;;;;5032136;28;19917;-64
2023/03/04 00:23:50;;;;;;;;;;;26.70;96.40;;;;;;5028357;28;19948;-64
2023/03/04 00:26:17;;;;;;;;;;;26.90;95.80;;;;;;5044639;28;20325;-65
2023/03/04 00:28:44;;;;;;;;;;;27.10;96.00;;;;;;5025134;28;20000;-63
2023/03/04 00:31:11;;;;;;;;;;;27.10;95.70;;;;;;5032393;28;19913;-64
2023/03/04 00:33:39;;;;;;;;;;;27.00;95.20;;;;;;5025857;28;20570;-69
2023/03/04 00:36:06;;;;;;;;;;;27.20;94.90;;;;;;5044401;28;19916;-69
2023/03/04 00:38:32;;;;;;;;;;;27.10;94.50;;;;;;5026762;28;19929;-64
2023/03/04 00:40:59;;;;;;;;;;;27.10;94.10;;;;;;5032578;28;20309;-61
2023/03/04 00:43:25;;;;;;;;;;;27.10;93.90;;;;;;5024267;28;19905;-69
2023/03/04 00:45:56;;;;;;;;;;;27.20;94.30;;;;;;5042253;28;20214;-65
2023/03/04 00:48:22;;;;;;;;;;;27.40;94.60;;;;;;5028183;28;19997;-65
2023/03/04 00:50:52;;;;;;;;;;;27.70;94.50;;;;;;5031811;28;19913;-63
2023/03/04 00:53:18;;;;;;;;;;;28.10;94.10;;;;;;5023922;28;19967;-67
2023/03/04 00:55:45;;;;;;;;;;;28.40;93.60;;;;;;5042559;28;20007;-64
2023/03/04 00:58:12;;;;;;;;;;;28.40;93.00;;;;;;5037147;28;19920;-68
2023/03/04 01:00:38;;;;;;;;;;;28.20;92.70;;;;;;5032249;28;20273;-66
2023/03/04 01:03:05;;;;;;;;;;;28.00;93.70;;;;;;5026108;28;19917;-66
2023/03/04 01:05:34;;;;;;;;;;;27.90;94.60;;;;;;5047791;28;19966;-63
2023/03/04 01:08:01;;;;;;;;;;;28.20;94.20;;;;;;5040034;28;20329;-66
2023/03/04 01:10:28;;;;;;;;;;;28.50;93.80;;;;;;5029054;28;19915;-64
2023/03/04 01:12:54;;;;;;;;;;;28.60;94.10;;;;;;5024873;28;19916;-66
2023/03/04 01:15:21;;;;;;;;;;;28.70;94.10;;;;;;5044048;28;19944;-63
2023/03/04 01:17:48;;;;;;;;;;;28.60;94.20;;;;;;5045056;28;19913;-62
2023/03/04 01:20:14;;;;;;;;;;;28.70;94.30;;;;;;5027085;28;19919;-64
2023/03/04 01:22:41;;;;;;;;;;;29.00;92.60;;;;;;5027162;28;19924;-64
2023/03/04 01:25:08;;;;;;;;;;;28.90;92.90;;;;;;5039764;28;19925;-61
2023/03/04 01:27:34;;;;;;;;;;;28.60;92.20;;;;;;5049075;28;19962;-64
2023/03/04 01:30:01;;;;;;;;;;;28.00;93.10;;;;;;5023021;28;20344;-65
2023/03/04 01:32:28;;;;;;;;;;;27.70;94.20;;;;;;5039877;28;20254;-68
2023/03/04 01:34:54;;;;;;;;;;;27.80;94.10;;;;;;5041256;28;19915;-65
2023/03/04 01:37:21;;;;;;;;;;;27.80;93.90;;;;;;5041652;28;19945;-63
2023/03/04 01:39:47;;;;;;;;;;;27.90;93.80;;;;;;5041358;28;19909;-66
2023/03/04 01:42:21;;;;;;;;;;;27.80;93.70;;;;;;5033647;28;19916;-65
2023/03/04 01:44:48;;;;;;;;;;;27.80;93.80;;;;;;5024046;28;20400;-68
2023/03/04 01:47:15;;;;;;;;;;;28.10;93.90;;;;;;5036078;28;19932;-64
2023/03/04 01:49:42;;;;;;;;;;;28.50;94.00;;;;;;5030199;28;19917;-68
2023/03/04 01:52:13;;;;;;;;;;;29.00;93.60;;;;;;5031608;28;20353;-63
2023/03/04 01:54:39;;;;;;;;;;;29.40;92.20;;;;;;5032611;28;19916;-67
2023/03/04 01:57:15;;;;;;;;;;;29.20;91.80;;;;;;5030962;28;19910;-63
2023/03/04 01:59:41;;;;;;;;;;;28.90;91.80;;;;;;5039234;28;19956;-63
2023/03/04 02:02:08;;;;;;;;;;;28.90;92.10;;;;;;5040763;28;20340;-65
2023/03/04 02:04:35;;;;;;;;;;;28.90;93.20;;;;;;5041672;28;19919;-66
2023/03/04 02:07:02;;;;;;;;;;;29.30;93.00;;;;;;5042088;28;19923;-66
2023/03/04 02:09:30;;;;;;;;;;;29.30;91.70;;;;;;5031576;28;20542;-65
2023/03/04 02:11:57;;;;;;;;;;;29.80;92.00;;;;;;5030282;28;19955;-64
2023/03/04 02:14:24;;;;;;;;;;;30.20;91.60;;;;;;5036013;28;19941;-66
2023/03/04 02:16:51;;;;;;;;;;;30.60;90.80;;;;;;5040173;28;20280;-68
2023/03/04 02:19:17;;;;;;;;;;;30.90;89.10;;;;;;5041470;28;19920;-69
2023/03/04 02:21:44;;;;;;;;;;;30.90;87.20;;;;;;5039447;28;20523;-62
2023/03/04 02:24:15;;;;;;;;;;;30.80;88.40;;;;;;5041345;28;19913;-67
2023/03/04 02:26:42;;;;;;;;;;;30.50;88.00;;;;;;5041760;28;19920;-75
2023/03/04 02:29:13;;;;;;;;;;;30.50;87.90;;;;;;5040045;28;20676;-64
2023/03/04 02:31:41;;;;;;;;;;;30.80;88.30;;;;;;5042410;28;20001;-64
2023/03/04 02:34:11;;;;;;;;;;;31.00;87.60;;;;;;5043038;28;19916;-63
2023/03/04 02:36:38;;;;;;;;;;;30.70;87.30;;;;;;5042507;28;20341;-64
2023/03/04 02:39:25;;;;;;;;;;;30.70;88.40;;;;;;5042467;28;19983;-65
2023/03/04 02:41:53;;;;;;;;;;;31.10;87.20;;;;;;5042347;28;19913;-67
2023/03/04 02:44:21;;;;;;;;;;;31.60;90.00;;;;;;5041912;28;19920;-68
2023/03/04 02:46:48;;;;;;;;;;;32.10;86.30;;;;;;5041918;28;20282;-67
2023/03/04 02:49:15;;;;;;;;;;;32.30;88.40;;;;;;5047383;28;19913;-64
2023/03/04 02:51:41;;;;;;;;;;;32.60;83.90;;;;;;5062754;28;19913;-72
2023/03/04 02:54:18;;;;;;;;;;;32.50;84.20;;;;;;5063103;28;20266;-67
2023/03/04 02:56:46;;;;;;;;;;;32.80;83.20;;;;;;5064230;28;19908;-65
2023/03/04 02:59:13;;;;;;;;;;;32.60;83.00;;;;;;5066921;28;19908;-67
2023/03/04 03:01:39;;;;;;;;;;;32.50;83.40;;;;;;5044467;28;19978;-71
2023/03/04 03:04:06;;;;;;;;;;;32.30;82.80;;;;;;5043654;28;20342;-65
2023/03/04 03:06:33;;;;;;;;;;;32.40;83.40;;;;;;5044352;28;19998;-69
2023/03/04 03:08:59;;;;;;;;;;;32.30;84.30;;;;;;5044584;28;20063;-68
2023/03/04 03:11:26;;;;;;;;;;;32.60;82.90;;;;;;5045881;28;19909;-67
2023/03/04 03:13:52;;;;;;;;;;;33.20;82.10;;;;;;5046072;28;19913;-64
2023/03/04 03:16:19;;;;;;;;;;;32.40;81.00;;;;;;5046302;28;20570;-68
2023/03/04 03:18:46;;;;;;;;;;;31.90;83.40;;;;;;5046151;28;19999;-70
2023/03/04 03:21:12;;;;;;;;;;;31.40;85.40;;;;;;5046277;28;20361;-66
2023/03/04 03:23:39;;;;;;;;;;;31.20;84.90;;;;;;5046081;28;19909;-68
2023/03/04 03:26:06;;;;;;;;;;;31.20;86.10;;;;;;5045836;28;19921;-66
2023/03/04 03:28:32;;;;;;;;;;;31.10;87.00;;;;;;5045716;28;20281;-65
2023/03/04 03:30:59;;;;;;;;;;;31.40;85.50;;;;;;5045863;28;20326;-70
2023/03/04 03:33:25;;;;;;;;;;;31.50;84.40;;;;;;5045574;28;19968;-65
2023/03/04 03:35:52;;;;;;;;;;;31.40;84.70;;;;;;5044416;28;20353;-64
2023/03/04 03:38:19;;;;;;;;;;;31.20;85.40;;;;;;5042693;28;19929;-64
2023/03/04 03:40:45;;;;;;;;;;;30.80;86.30;;;;;;5044006;28;19915;-63
2023/03/04 03:43:12;;;;;;;;;;;30.90;87.00;;;;;;5041329;28;19923;-65
2023/03/04 03:45:38;;;;;;;;;;;30.90;85.50;;;;;;5035163;28;19920;-65
2023/03/04 03:48:05;;;;;;;;;;;30.40;87.30;;;;;;5045810;28;19913;-65
2023/03/04 03:50:32;;;;;;;;;;;30.20;88.50;;;;;;5039976;28;19913;-65
2023/03/04 03:52:58;;;;;;;;;;;30.30;88.30;;;;;;5040376;28;20518;-68
2023/03/04 03:55:26;;;;;;;;;;;30.20;88.30;;;;;;5041427;28;19916;-65
2023/03/04 03:57:53;;;;;;;;;;;30.20;88.40;;;;;;5045738;28;19913;-64
2023/03/04 04:00:20;;;;;;;;;;;29.90;89.00;;;;;;5042190;28;20396;-65
2023/03/04 04:02:46;;;;;;;;;;;29.40;89.80;;;;;;5040213;28;19999;-64
2023/03/04 04:05:14;;;;;;;;;;;29.10;90.80;;;;;;5041423;28;19913;-65
2023/03/04 04:07:40;;;;;;;;;;;29.20;90.80;;;;;;5043509;28;20273;-64
2023/03/04 04:10:08;;;;;;;;;;;29.70;90.10;;;;;;5039116;28;20042;-65
2023/03/04 04:12:34;;;;;;;;;;;30.10;89.50;;;;;;5041827;28;19920;-64
2023/03/04 04:15:01;;;;;;;;;;;30.80;88.00;;;;;;5040823;28;19909;-65
2023/03/04 04:17:27;;;;;;;;;;;31.90;86.80;;;;;;5041342;28;20513;-63
2023/03/04 04:19:54;;;;;;;;;;;33.80;81.90;;;;;;5042191;28;19999;-67
2023/03/04 04:22:21;;;;;;;;;;;35.10;80.30;;;;;;5042391;28;19913;-62
2023/03/04 04:24:47;;;;;;;;;;;36.60;76.90;;;;;;5038745;28;19912;-64
2023/03/04 04:27:14;;;;;;;;;;;37.30;75.90;;;;;;5042747;28;20003;-65
2023/03/04 04:29:41;;;;;;;;;;;36.80;75.10;;;;;;5038521;28;20094;-63
2023/03/04 04:32:08;;;;;;;;;;;36.20;76.40;;;;;;5039505;28;19913;-69
2023/03/04 04:34:34;;;;;;;;;;;36.40;75.10;;;;;;5037917;28;19909;-67
2023/03/04 04:37:01;;;;;;;;;;;36.00;75.70;;;;;;5038612;28;19916;-66
2023/03/04 04:39:27;;;;;;;;;;;35.00;76.30;;;;;;5037328;28;20369;-64
2023/03/04 04:41:54;;;;;;;;;;;34.00;77.30;;;;;;5040374;28;19909;-66
2023/03/04 04:44:21;;;;;;;;;;;32.90;80.00;;;;;;5034318;28;19931;-63
2023/03/04 04:46:47;;;;;;;;;;;32.80;79.90;;;;;;5035645;28;19913;-66
2023/03/04 04:49:14;;;;;;;;;;;33.00;80.60;;;;;;5037367;28;19916;-64
2023/03/04 04:51:40;;;;;;;;;;;32.90;79.70;;;;;;5023917;28;19909;-63
2023/03/04 04:54:07;;;;;;;;;;;32.50;80.90;;;;;;5037825;28;20530;-63
2023/03/04 04:56:34;;;;;;;;;;;32.60;80.10;;;;;;5035386;28;19916;-63
2023/03/04 04:59:02;;;;;;;;;;;32.80;79.40;;;;;;5049942;28;20369;-65
2023/03/04 05:01:28;;;;;;;;;;;33.20;80.00;;;;;;5023832;28;19913;-67
2023/03/04 05:03:55;;;;;;;;;;;34.30;78.80;;;;;;5036257;28;20869;-63
2023/03/04 05:06:23;;;;;;;;;;;36.00;74.90;;;;;;5035461;28;20275;-66
2023/03/04 05:08:50;;;;;;;;;;;36.90;72.70;;;;;;5058597;28;20269;-64
2023/03/04 05:11:18;;;;;;;;;;;37.90;72.10;;;;;;5024556;28;20107;-65
2023/03/04 05:13:45;;;;;;;;;;;38.30;70.70;;;;;;5033918;28;19914;-61
2023/03/04 05:16:12;;;;;;;;;;;40.30;66.80;;;;;;5035469;28;19919;-67
2023/03/04 05:18:38;;;;;;;;;;;41.10;65.70;;;;;;5056131;28;19916;-67
2023/03/04 05:21:05;;;;;;;;;;;41.00;64.90;;;;;;5028514;28;20004;-65
2023/03/04 05:23:36;;;;;;;;;;;40.30;63.60;;;;;;5032675;28;20051;-64
2023/03/04 05:26:03;;;;;;;;;;;40.00;65.00;;;;;;5036389;28;19924;-65
2023/03/04 05:28:29;;;;;;;;;;;40.40;65.30;;;;;;5054794;28;20387;-64
2023/03/04 05:30:56;;;;;;;;;;;41.20;63.10;;;;;;5032017;28;19936;-65
2023/03/04 05:33:23;;;;;;;;;;;41.60;62.40;;;;;;5030999;28;20354;-65
2023/03/04 05:35:50;;;;;;;;;;;42.00;60.70;;;;;;5036448;28;20039;-65
2023/03/04 05:38:18;;;;;;;;;;;42.40;59.30;;;;;;5041274;28;20685;-65
2023/03/04 05:40:45;;;;;;;;;;;42.60;59.10;;;;;;5036042;28;19916;-65
2023/03/04 05:43:11;;;;;;;;;;;42.00;60.30;;;;;;5030692;28;20141;-65
2023/03/04 05:45:39;;;;;;;;;;;42.30;59.80;;;;;;5037661;28;19917;-65
2023/03/04 05:48:06;;;;;;;;;;;42.20;59.40;;;;;;5049065;28;19919;-64
2023/03/04 05:50:33;;;;;;;;;;;40.90;60.50;;;;;;5040489;28;20001;-65
2023/03/04 05:53:00;;;;;;;;;;;40.90;61.10;;;;;;5029113;28;20366;-65
2023/03/04 05:55:28;;;;;;;;;;;41.50;60.00;;;;;;5038959;28;19909;-65
2023/03/04 05:57:55;;;;;;;;;;;40.80;60.80;;;;;;5044514;28;20379;-65
2023/03/04 06:00:22;;;;;;;;;;;40.30;62.00;;;;;;5036127;28;19910;-67
2023/03/04 06:02:49;;;;;;;;;;;38.90;63.70;;;;;;5027028;28;20318;-64
2023/03/04 06:05:16;;;;;;;;;;;37.60;64.00;;;;;;5041172;28;19924;-63
2023/03/04 06:07:43;;;;;;;;;;;36.30;65.60;;;;;;5040614;28;20409;-64
2023/03/04 06:10:11;;;;;;;;;;;34.60;69.00;;;;;;5048727;28;19996;-61
2023/03/04 06:12:38;;;;;;;;;;;33.70;70.90;;;;;;5024975;28;20792;-63
2023/03/04 06:15:05;;;;;;;;;;;32.50;73.50;;;;;;5041452;28;20413;-63
2023/03/04 06:17:31;;;;;;;;;;;31.70;75.50;;;;;;5038595;28;19909;-63
2023/03/04 06:19:58;;;;;;;;;;;31.10;76.40;;;;;;5052787;28;19979;-63
2023/03/04 06:22:25;;;;;;;;;;;31.60;77.10;;;;;;5022640;28;19932;-63
2023/03/04 06:24:51;;;;;;;;;;;33.00;74.10;;;;;;5038035;28;19917;-65
2023/03/04 06:27:18;;;;;;;;;;;34.40;72.40;;;;;;5034813;28;19919;-63
2023/03/04 06:29:44;;;;;;;;;;;35.20;68.60;;;;;;5056201;28;19919;-63
2023/03/04 06:32:11;;;;;;;;;;;36.90;67.10;;;;;;5025395;28;19909;-64
2023/03/04 06:34:38;;;;;;;;;;;37.60;65.60;;;;;;5034039;28;19913;-64
2023/03/04 06:37:04;;;;;;;;;;;38.00;65.60;;;;;;5036583;28;19913;-65
2023/03/04 06:39:31;;;;;;;;;;;37.80;65.30;;;;;;5060325;28;19924;-64
2023/03/04 06:41:58;;;;;;;;;;;36.10;67.10;;;;;;5026062;28;19909;-64
2023/03/04 06:44:24;;;;;;;;;;;34.80;68.70;;;;;;5033982;28;19960;-63
2023/03/04 06:46:51;;;;;;;;;;;33.80;71.30;;;;;;5034290;28;19912;-64
2023/03/04 06:49:18;;;;;;;;;;;32.90;71.10;;;;;;5060035;28;20384;-63
2023/03/04 06:51:44;;;;;;;;;;;32.80;71.50;;;;;;5030004;28;19913;-64
2023/03/04 06:54:11;;;;;;;;;;;33.00;71.30;;;;;;5033466;28;19936;-64
2023/03/04 06:56:37;;;;;;;;;;;34.20;70.30;;;;;;5032054;28;19909;-64
2023/03/04 06:59:04;;;;;;;;;;;34.40;68.90;;;;;;5055863;28;19912;-65
2023/03/04 07:01:31;;;;;;;;;;;33.70;69.80;;;;;;5035745;28;20005;-65
2023/03/04 07:03:58;;;;;;;;;;;32.60;72.40;;;;;;5033254;28;19913;-65
2023/03/04 07:06:25;;;;;;;;;;;31.90;73.80;;;;;;5030029;28;19963;-65
2023/03/04 07:08:52;;;;;;;;;;;31.20;75.00;;;;;;5054821;28;19923;-65
2023/03/04 07:11:19;;;;;;;;;;;30.60;77.00;;;;;;5039475;28;20333;-64
2023/03/04 07:13:46;;;;;;;;;;;30.30;77.10;;;;;;5033455;28;19970;-63
2023/03/04 07:16:14;;;;;;;;;;;30.10;77.70;;;;;;5041764;28;19963;-67
2023/03/04 07:18:40;;;;;;;;;;;29.70;78.90;;;;;;5043443;28;19913;-64
2023/03/04 07:21:07;;;;;;;;;;;29.10;80.10;;;;;;5040405;28;19908;-64
2023/03/04 07:23:34;;;;;;;;;;;28.50;82.20;;;;;;5038935;28;19921;-63
2023/03/04 07:26:01;;;;;;;;;;;28.20;83.60;;;;;;5040104;28;20280;-64
2023/03/04 07:28:28;;;;;;;;;;;27.80;85.00;;;;;;5045606;28;20418;-66
2023/03/04 07:30:54;;;;;;;;;;;27.60;85.40;;;;;;5037296;28;19963;-69
2023/03/04 07:33:21;;;;;;;;;;;27.70;87.30;;;;;;5029053;28;19923;-65
2023/03/04 07:35:47;;;;;;;;;;;28.30;85.60;;;;;;5028712;28;19913;-69
2023/03/04 07:38:14;;;;;;;;;;;28.70;84.30;;;;;;5027391;28;19921;-64
2023/03/04 07:40:41;;;;;;;;;;;28.60;85.10;;;;;;5038762;28;19913;-64
2023/03/04 07:43:07;;;;;;;;;;;28.60;85.00;;;;;;5026316;28;20007;-68
2023/03/04 07:45:34;;;;;;;;;;;28.40;86.50;;;;;;5031095;28;19974;-64
2023/03/04 07:48:00;;;;;;;;;;;28.20;87.40;;;;;;5025165;28;19909;-65
2023/03/04 07:50:27;;;;;;;;;;;27.90;88.20;;;;;;5041222;28;19913;-65
2023/03/04 07:52:54;;;;;;;;;;;27.40;89.90;;;;;;5025146;28;20412;-64
2023/03/04 07:55:20;;;;;;;;;;;27.00;90.30;;;;;;5032157;28;19956;-66
2023/03/04 07:57:47;;;;;;;;;;;26.80;90.80;;;;;;5024424;28;19928;-64
2023/03/04 08:00:15;;;;;;;;;;;26.60;91.40;;;;;;5041183;28;20445;-69
2023/03/04 08:02:42;;;;;;;;;;;26.30;92.00;;;;;;5024307;28;20385;-64
2023/03/04 08:05:09;;;;;;;;;;;26.20;92.20;;;;;;5040960;28;19951;-70
2023/03/04 08:07:36;;;;;;;;;;;26.00;92.70;;;;;;5041556;28;19913;-71
2023/03/04 08:10:03;;;;;;;;;;;25.80;93.00;;;;;;5042867;28;19920;-75
2023/03/04 08:12:30;;;;;;;;;;;25.80;93.40;;;;;;5043949;28;19920;-67
2023/03/04 08:14:57;;;;;;;;;;;25.50;94.20;;;;;;5042821;28;19951;-70
2023/03/04 08:17:24;;;;;;;;;;;25.40;94.40;;;;;;5043843;28;19948;-76
2023/03/04 08:19:50;;;;;;;;;;;25.30;94.60;;;;;;5035013;28;19983;-76
2023/03/04 08:22:17;;;;;;;;;;;25.30;94.90;;;;;;5024940;28;19917;-64
2023/03/04 08:24:44;;;;;;;;;;;25.20;95.10;;;;;;5023495;28;19917;-74
2023/03/04 08:27:10;;;;;;;;;;;25.10;95.40;;;;;;5024610;28;19910;-64
2023/03/04 08:29:37;;;;;;;;;;;25.10;95.60;;;;;;5024700;28;19909;-69
2023/03/04 08:32:03;;;;;;;;;;;25.00;95.80;;;;;;5024377;28;19909;-75
2023/03/04 08:34:30;;;;;;;;;;;24.90;95.80;;;;;;5024555;28;19917;-68
2023/03/04 08:36:57;;;;;;;;;;;24.90;96.10;;;;;;5025002;28;19909;-67
2023/03/04 08:39:23;;;;;;;;;;;24.90;96.60;;;;;;5024846;28;19964;-67
2023/03/04 08:41:50;;;;;;;;;;;24.80;96.80;;;;;;5025226;28;20311;-67
2023/03/04 08:44:17;;;;;;;;;;;24.70;96.90;;;;;;5024615;28;19920;-65
2023/03/04 08:46:43;;;;;;;;;;;24.50;97.10;;;;;;5024008;28;20016;-63
2023/03/04 08:49:11;;;;;;;;;;;24.40;97.40;;;;;;5025000;28;20381;-69
2023/03/04 08:51:38;;;;;;;;;;;24.40;97.70;;;;;;5024908;28;19909;-70
2023/03/04 08:54:05;;;;;;;;;;;24.30;97.70;;;;;;5022875;28;19909;-74
2023/03/04 08:56:31;;;;;;;;;;;24.20;97.80;;;;;;5024341;28;19933;-75
2023/03/04 08:58:58;;;;;;;;;;;24.00;98.00;;;;;;5024397;28;20570;-67
2023/03/04 09:01:25;;;;;;;;;;;24.00;98.30;;;;;;5024654;28;19913;-66
2023/03/04 09:03:52;;;;;;;;;;;23.90;98.40;;;;;;5024273;28;19909;-78
2023/03/04 09:06:18;;;;;;;;;;;24.00;98.40;;;;;;5024157;28;19917;-64
2023/03/04 09:08:45;;;;;;;;;;;23.90;98.50;;;;;;5024354;28;19909;-71
2023/03/04 09:11:12;;;;;;;;;;;23.90;98.60;;;;;;5024438;28;19913;-66
2023/03/04 09:13:39;;;;;;;;;;;23.90;98.80;;;;;;5024147;28;19920;-67
2023/03/04 09:16:13;;;;;;;;;;;23.90;98.80;;;;;;5023918;28;19909;-75
2023/03/04 09:18:40;;;;;;;;;;;23.90;98.80;;;;;;5024210;28;19948;-71
2023/03/04 09:21:07;;;;;;;;;;;23.90;98.70;;;;;;5023840;28;20330;-74
2023/03/04 09:23:34;;;;;;;;;;;23.90;98.80;;;;;;5023548;28;19931;-74
2023/03/04 09:26:01;;;;;;;;;;;23.80;98.80;;;;;;5023584;28;19917;-66
2023/03/04 09:28:28;;;;;;;;;;;23.80;99.10;;;;;;5024209;28;19913;-75
2023/03/04 09:30:55;;;;;;;;;;;23.90;99.30;;;;;;5023858;28;20374;-75
2023/03/04 09:33:21;;;;;;;;;;;23.80;98.90;;;;;;5023994;28;19952;-64
2023/03/04 09:35:49;;;;;;;;;;;23.80;99.10;;;;;;5023771;28;20000;-68
2023/03/04 09:38:16;;;;;;;;;;;23.80;99.10;;;;;;5023603;28;19921;-68
2023/03/04 09:40:45;;;;;;;;;;;23.80;99.20;;;;;;5022674;28;19924;-71
2023/03/04 09:43:20;;;;;;;;;;;23.80;99.30;;;;;;5023722;28;19941;-74
2023/03/04 09:45:49;;;;;;;;;;;23.80;99.40;;;;;;5023968;28;20290;-68
2023/03/04 09:48:17;;;;;;;;;;;23.80;99.30;;;;;;5023908;28;20024;-69
2023/03/04 09:51:04;;;;;;;;;;;23.70;99.60;;;;;;5023196;28;19909;-74
2023/03/04 09:53:39;;;;;;;;;;;23.70;99.80;;;;;;5023118;28;19954;-64
2023/03/04 09:56:06;;;;;;;;;;;23.70;99.90;;;;;;5023179;28;19916;-65
2023/03/04 09:58:32;;;;;;;;;;;23.70;99.90;;;;;;5023684;28;20047;-62
2023/03/04 10:01:07;;;;;;;;;;;23.80;99.90;;;;;;5023447;28;20093;-64
2023/03/04 10:03:43;;;;;;;;;;;23.80;99.90;;;;;;5023023;28;19917;-65
2023/03/04 10:06:12;;;;;;;;;;;23.80;99.90;;;;;;5022118;28;19918;-65
2023/03/04 10:09:04;;;;;;;;;;;23.80;99.90;;;;;;5023149;28;19910;-65
2023/03/04 10:11:40;;;;;;;;;;;23.70;99.90;;;;;;5014574;28;19999;-68
2023/03/04 10:14:22;;;;;;;;;;;23.80;99.90;;;;;;5023179;28;20001;-63
2023/03/04 10:16:56;;;;;;;;;;;23.70;99.90;;;;;;5023549;28;20313;-65
2023/03/04 10:19:25;;;;;;;;;;;23.70;99.90;;;;;;5023348;28;20400;-63
2023/03/04 10:21:52;;;;;;;;;;;23.70;99.90;;;;;;5023002;28;19909;-65
2023/03/04 10:24:21;;;;;;;;;;;23.70;99.90;;;;;;5023169;28;19920;-63
2023/03/04 10:26:53;;;;;;;;;;;23.70;99.90;;;;;;5022840;28;19917;-64
2023/03/04 10:29:21;;;;;;;;;;;23.60;99.90;;;;;;5023155;28;19909;-63
2023/03/04 10:31:48;;;;;;;;;;;23.60;99.90;;;;;;5021483;28;19931;-67
2023/03/04 10:34:18;;;;;;;;;;;23.60;99.90;;;;;;5022364;28;20382;-66
2023/03/04 10:37:01;;;;;;;;;;;23.60;99.90;;;;;;5022837;28;19936;-66
2023/03/04 10:39:32;;;;;;;;;;;23.60;99.90;;;;;;5022916;28;20012;-64
2023/03/04 10:42:01;;;;;;;;;;;23.50;99.90;;;;;;5022451;28;20352;-63
2023/03/04 10:44:28;;;;;;;;;;;23.50;99.90;;;;;;5023048;28;19920;-62
2023/03/04 10:46:56;;;;;;;;;;;23.50;99.90;;;;;;5022867;28;20366;-66
2023/03/04 10:49:26;;;;;;;;;;;23.40;99.90;;;;;;5022756;28;20506;-68
2023/03/04 10:51:52;;;;;;;;;;;23.40;99.90;;;;;;5023019;28;19920;-68
2023/03/04 10:54:28;;;;;;;;;;;23.40;99.90;;;;;;5022380;28;20378;-65
2023/03/04 10:56:56;;;;;;;;;;;23.40;99.90;;;;;;5022750;28;19916;-66
2023/03/04 10:59:30;;;;;;;;;;;23.40;99.90;;;;;;5022835;28;19909;-65
2023/03/04 11:01:57;;;;;;;;;;;23.40;99.90;;;;;;5022677;28;19924;-64
2023/03/04 11:04:25;;;;;;;;;;;23.40;99.90;;;;;;5022643;28;19909;-68
2023/03/04 11:06:52;;;;;;;;;;;23.40;99.90;;;;;;5022455;28;20006;-69
2023/03/04 11:09:23;;;;;;;;;;;23.40;99.90;;;;;;5022770;28;20032;-64
2023/03/04 11:11:51;;;;;;;;;;;23.40;99.90;;;;;;5022412;28;19913;-69
2023/03/04 11:14:23;;;;;;;;;;;23.40;99.90;;;;;;5022523;28;19989;-66
2023/03/04 11:16:55;;;;;;;;;;;23.40;99.90;;;;;;5022911;28;19909;-64
2023/03/04 11:19:22;;;;;;;;;;;23.30;99.90;;;;;;5025835;28;20032;-68
2023/03/04 11:21:50;;;;;;;;;;;23.30;99.90;;;;;;5026599;28;20313;-67
2023/03/04 11:24:24;;;;;;;;;;;23.30;99.90;;;;;;5024351;28;20297;-64
2023/03/04 11:27:11;;;;;;;;;;;23.30;99.90;;;;;;5025339;28;19968;-65
2023/03/04 11:29:43;;;;;;;;;;;23.20;99.90;;;;;;5024737;28;19909;-67
2023/03/04 11:32:09;;;;;;;;;;;23.20;99.90;;;;;;5025531;28;19909;-65
2023/03/04 11:34:56;;;;;;;;;;;23.20;99.90;;;;;;5026633;28;20004;-69
2023/03/04 11:37:25;;;;;;;;;;;23.10;99.90;;;;;;5025970;28;20325;-64
2023/03/04 11:40:24;;;;;;;;;;;23.10;99.90;;;;;;5025874;28;19999;-69
2023/03/04 11:43:14;;;;;;;;;;;23.10;99.90;;;;;;5013969;28;19909;-65
2023/03/04 11:45:44;;;;;;;;;;;23.10;99.90;;;;;;5025079;28;19924;-64
2023/03/04 11:48:13;;;;;;;;;;;23.10;99.90;;;;;;5025557;28;19913;-63
2023/03/04 11:50:58;;;;;;;;;;;23.10;99.90;;;;;;5026007;28;19970;-62
2023/03/04 11:53:31;;;;;;;;;;;23.10;99.90;;;;;;5025385;28;20300;-64
2023/03/04 11:56:23;;;;;;;;;;;23.00;99.90;;;;;;5025522;28;19909;-63
2023/03/04 11:58:50;;;;;;;;;;;23.00;99.90;;;;;;5025850;28;20420;-62
2023/03/04 12:01:25;;;;;;;;;;;23.00;99.90;;;;;;5025066;28;19909;-63
2023/03/04 12:04:00;;;;;;;;;;;22.90;99.90;;;;;;5025455;28;19935;-63
2023/03/04 12:06:32;;;;;;;;;;;23.00;99.90;;;;;;5025115;28;20428;-65
2023/03/04 12:09:19;;;;;;;;;;;23.00;99.90;;;;;;5025115;28;19909;-64
2023/03/04 12:12:12;;;;;;;;;;;23.00;99.90;;;;;;5024794;28;19909;-66
2023/03/04 12:14:56;;;;;;;;;;;22.90;99.90;;;;;;5024496;28;19916;-66
2023/03/04 12:17:43;;;;;;;;;;;22.90;99.90;;;;;;5025413;28;19909;-64
2023/03/04 12:20:16;;;;;;;;;;;22.90;99.90;;;;;;5021143;28;19909;-75
2023/03/04 12:22:58;;;;;;;;;;;22.90;99.90;;;;;;5028272;28;19957;-67
2023/03/04 12:25:36;;;;;;;;;;;22.90;99.90;;;;;;5043551;28;19920;-68
2023/03/04 12:28:15;;;;;;;;;;;22.90;99.90;;;;;;5044443;28;20269;-65
2023/03/04 12:31:01;;;;;;;;;;;22.80;99.90;;;;;;5045147;28;19909;-64
2023/03/04 12:33:36;;;;;;;;;;;22.80;99.90;;;;;;5044886;28;19908;-65
2023/03/04 12:36:09;;;;;;;;;;;22.80;99.90;;;;;;5044148;28;20385;-67
2023/03/04 12:38:42;;;;;;;;;;;22.80;99.90;;;;;;5044184;28;19921;-62
2023/03/04 12:41:21;;;;;;;;;;;22.80;99.90;;;;;;5044240;28;19963;-63
2023/03/04 12:43:56;;;;;;;;;;;22.80;99.90;;;;;;5044432;28;19934;-62
2023/03/04 12:46:23;;;;;;;;;;;22.70;99.90;;;;;;5043470;28;19952;-63
2023/03/04 12:49:07;;;;;;;;;;;22.70;99.90;;;;;;5044310;28;19952;-63
2023/03/04 12:51:34;;;;;;;;;;;22.60;99.90;;;;;;5044319;28;20461;-65
2023/03/04 12:54:07;;;;;;;;;;;22.60;99.90;;;;;;5043860;28;19913;-64
2023/03/04 12:56:47;;;;;;;;;;;22.50;99.90;;;;;;5044158;28;19995;-74
2023/03/04 12:59:16;;;;;;;;;;;22.50;99.90;;;;;;5043930;28;19934;-70
2023/03/04 13:01:48;;;;;;;;;;;22.50;99.90;;;;;;5043723;28;19912;-62
2023/03/04 13:04:17;;;;;;;;;;;22.50;99.90;;;;;;5044121;28;19932;-63
2023/03/04 13:07:02;;;;;;;;;;;22.50;99.90;;;;;;5044097;28;20288;-64
2023/03/04 13:09:32;;;;;;;;;;;22.50;99.90;;;;;;5043840;28;19908;-63
2023/03/04 13:12:02;;;;;;;;;;;22.40;99.90;;;;;;5043372;28;20432;-68
2023/03/04 13:14:29;;;;;;;;;;;22.40;99.90;;;;;;5043365;28;20282;-63
2023/03/04 13:17:00;;;;;;;;;;;22.40;99.90;;;;;;5043655;28;20280;-64
2023/03/04 13:19:45;;;;;;;;;;;22.30;99.90;;;;;;5043347;28;19917;-68
2023/03/04 13:22:30;;;;;;;;;;;22.20;99.90;;;;;;5042912;28;19970;-64
2023/03/04 13:24:57;;;;;;;;;;;22.30;99.90;;;;;;5023137;28;19921;-62
2023/03/04 13:27:59;;;;;;;;;;;22.20;99.90;;;;;;5023068;28;19909;-70
2023/03/04 13:30:31;;;;;;;;;;;22.20;99.90;;;;;;5040960;28;19909;-63
2023/03/04 13:33:17;;;;;;;;;;;22.10;99.90;;;;;;5045271;28;19999;-63
2023/03/04 13:35:58;;;;;;;;;;;22.10;99.90;;;;;;5042680;28;19913;-70
2023/03/04 13:38:29;;;;;;;;;;;22.10;99.90;;;;;;5042925;28;19948;-66
2023/03/04 13:41:14;;;;;;;;;;;22.10;99.90;;;;;;5043257;28;19919;-64
2023/03/04 13:43:47;;;;;;;;;;;22.10;99.90;;;;;;5043385;28;20361;-62
2023/03/04 13:46:22;;;;;;;;;;;22.10;99.90;;;;;;5042979;28;19921;-66
2023/03/04 13:48:51;;;;;;;;;;;22.00;99.90;;;;;;5043136;28;20369;-64
2023/03/04 13:51:27;;;;;;;;;;;22.00;99.90;;;;;;5042582;28;19909;-64
2023/03/04 13:53:59;;;;;;;;;;;22.10;99.90;;;;;;5043176;28;19909;-64
2023/03/04 13:56:27;;;;;;;;;;;22.00;99.90;;;;;;5042816;28;19904;-64
2023/03/04 13:59:23;;;;;;;;;;;22.00;99.90;;;;;;5043010;28;20011;-64
2023/03/04 14:01:54;;;;;;;;;;;22.00;99.90;;;;;;5046228;28;20013;-65
2023/03/04 14:04:21;;;;;;;;;;;22.10;99.90;;;;;;5043076;28;19919;-66
2023/03/04 14:06:51;;;;;;;;;;;22.00;99.90;;;;;;5043069;28;20293;-64
2023/03/04 14:09:21;;;;;;;;;;;22.00;99.90;;;;;;5041322;28;19983;-62
2023/03/04 14:11:48;;;;;;;;;;;22.00;99.90;;;;;;5043058;28;19909;-62
2023/03/04 14:14:17;;;;;;;;;;;22.00;99.90;;;;;;5042981;28;19920;-63
2023/03/04 14:16:49;;;;;;;;;;;21.90;99.90;;;;;;5043094;28;19958;-65
2023/03/04 14:19:37;;;;;;;;;;;21.90;99.90;;;;;;5043341;28;19909;-65
2023/03/04 14:22:19;;;;;;;;;;;21.90;99.90;;;;;;5042583;28;19920;-63
2023/03/04 14:25:15;;;;;;;;;;;21.90;99.90;;;;;;5042752;28;19954;-62
2023/03/04 14:27:43;;;;;;;;;;;21.80;99.90;;;;;;5045833;28;19963;-71
2023/03/04 14:30:18;;;;;;;;;;;21.80;99.90;;;;;;5042767;28;19963;-66